createdAt,value
2018-08-13T00:01:28.899Z,16.74
2018-08-13T00:03:56.780Z,16.76
2018-08-13T00:06:24.619Z,16.94
2018-08-13T00:08:52.477Z,16.84
2018-08-13T00:11:20.394Z,16.76
2018-08-13T00:13:48.307Z,16.78
2018-08-13T00:16:16.108Z,16.62
2018-08-13T00:18:43.996Z,16.67
2018-08-13T00:21:11.915Z,16.64
2018-08-13T00:23:39.741Z,16.64
2018-08-13T00:26:07.579Z,16.52
2018-08-13T00:28:35.436Z,16.51
2018-08-13T00:31:03.332Z,16.33
2018-08-13T00:33:31.189Z,16.23
2018-08-13T00:35:58.955Z,16.41
2018-08-13T00:38:26.748Z,16.36
2018-08-13T00:40:54.608Z,16.31
2018-08-13T00:43:22.447Z,16.13
2018-08-13T00:45:50.328Z,16.29
2018-08-13T00:48:18.127Z,16.07
2018-08-13T00:50:45.976Z,16.06
2018-08-13T00:53:13.879Z,16.07
2018-08-13T00:55:41.724Z,16.04
2018-08-13T00:58:09.524Z,15.98
2018-08-13T01:00:37.442Z,15.80
2018-08-13T01:03:06.431Z,15.82
2018-08-13T01:05:34.220Z,15.97
2018-08-13T01:08:02.091Z,15.86
2018-08-13T01:10:29.867Z,15.79
2018-08-13T01:12:57.653Z,15.70
2018-08-13T01:15:25.539Z,15.59
2018-08-13T01:17:53.387Z,15.55
2018-08-13T01:20:21.583Z,15.65
2018-08-13T01:22:49.466Z,15.58
2018-08-13T01:25:19.318Z,15.67
2018-08-13T01:27:47.127Z,15.61
2018-08-13T01:30:16.667Z,15.38
2018-08-13T01:32:44.515Z,15.44
2018-08-13T01:35:12.385Z,15.48
2018-08-13T01:37:40.219Z,15.35
2018-08-13T01:40:09.763Z,15.40
2018-08-13T01:42:37.797Z,15.36
2018-08-13T01:45:08.583Z,15.35
2018-08-13T01:47:36.508Z,15.32
2018-08-13T01:50:07.271Z,15.23
2018-08-13T01:52:35.151Z,15.09
2018-08-13T01:55:03.471Z,15.09
2018-08-13T01:57:31.303Z,15.02
2018-08-13T01:59:59.151Z,15.05
2018-08-13T02:02:27.011Z,15.08
2018-08-13T02:04:54.792Z,15.02
2018-08-13T02:07:22.727Z,15.02
2018-08-13T02:09:50.652Z,15.00
2018-08-13T02:12:18.599Z,15.00
2018-08-13T02:14:46.364Z,14.99
2018-08-13T02:17:14.168Z,14.96
2018-08-13T02:19:41.932Z,14.94
2018-08-13T02:22:09.888Z,14.83
2018-08-13T02:24:37.660Z,14.71
2018-08-13T02:27:05.574Z,14.73
2018-08-13T02:29:33.419Z,14.70
2018-08-13T02:32:01.236Z,14.69
2018-08-13T02:34:29.048Z,14.69
2018-08-13T02:36:56.920Z,14.64
2018-08-13T02:39:24.792Z,14.64
2018-08-13T02:41:52.583Z,14.70
2018-08-13T02:44:20.456Z,14.63
2018-08-13T02:46:48.271Z,14.78
2018-08-13T02:49:16.131Z,14.68
2018-08-13T02:51:44.024Z,14.75
2018-08-13T02:54:11.913Z,14.69
2018-08-13T02:56:39.807Z,14.64
2018-08-13T02:59:07.651Z,14.57
2018-08-13T03:01:35.573Z,14.64
2018-08-13T03:04:03.687Z,14.55
2018-08-13T03:06:31.598Z,14.64
2018-08-13T03:08:59.512Z,14.61
2018-08-13T03:11:27.253Z,14.62
2018-08-13T03:13:55.121Z,14.52
2018-08-13T03:16:24.226Z,14.55
2018-08-13T03:18:52.374Z,14.55
2018-08-13T03:21:20.280Z,14.57
2018-08-13T03:23:48.196Z,14.57
2018-08-13T03:26:16.020Z,14.52
2018-08-13T03:28:43.817Z,14.59
2018-08-13T03:31:11.635Z,14.56
2018-08-13T03:33:39.523Z,14.47
2018-08-13T03:36:07.751Z,14.44
2018-08-13T03:38:35.639Z,14.33
2018-08-13T03:41:03.595Z,14.31
2018-08-13T03:43:31.441Z,14.27
2018-08-13T03:45:59.300Z,14.28
2018-08-13T03:48:27.142Z,14.17
2018-08-13T03:50:55.002Z,14.15
2018-08-13T03:53:22.964Z,14.11
2018-08-13T03:55:50.804Z,14.05
2018-08-13T03:58:18.715Z,14.13
2018-08-13T04:00:46.597Z,14.07
2018-08-13T04:03:14.425Z,14.13
2018-08-13T04:05:42.306Z,14.15
2018-08-13T04:08:10.182Z,14.10
2018-08-13T04:10:38.104Z,14.06
2018-08-13T04:13:05.915Z,14.09
2018-08-13T04:15:33.824Z,14.09
2018-08-13T04:18:01.620Z,14.14
2018-08-13T04:20:29.493Z,14.20
2018-08-13T04:22:57.359Z,14.19
2018-08-13T04:25:25.299Z,14.23
2018-08-13T04:27:53.155Z,14.25
2018-08-13T04:30:20.977Z,14.28
2018-08-13T04:32:48.821Z,14.34
2018-08-13T04:35:16.647Z,14.36
2018-08-13T04:37:45.415Z,14.42
2018-08-13T04:40:15.384Z,14.46
2018-08-13T04:42:44.178Z,14.54
2018-08-13T04:45:12.115Z,14.59
2018-08-13T04:47:42.802Z,14.59
2018-08-13T04:50:10.619Z,14.65
2018-08-13T04:52:38.475Z,14.70
2018-08-13T04:55:07.945Z,14.71
2018-08-13T04:57:35.768Z,14.75
2018-08-13T05:00:04.918Z,14.79
2018-08-13T05:02:32.723Z,14.86
2018-08-13T05:05:00.578Z,14.95
2018-08-13T05:07:28.523Z,15.09
2018-08-13T05:09:56.271Z,15.20
2018-08-13T05:12:24.097Z,15.40
2018-08-13T05:14:51.991Z,15.53
2018-08-13T05:17:19.951Z,15.69
2018-08-13T05:19:47.755Z,15.88
2018-08-13T05:22:15.631Z,16.12
2018-08-13T05:24:43.792Z,16.28
2018-08-13T05:27:11.651Z,16.33
2018-08-13T05:29:39.449Z,16.47
2018-08-13T05:32:07.724Z,16.63
2018-08-13T05:34:35.532Z,16.73
2018-08-13T05:37:03.452Z,16.85
2018-08-13T05:39:31.324Z,16.99
2018-08-13T05:41:59.159Z,17.25
2018-08-13T05:44:27.018Z,17.56
2018-08-13T05:46:54.904Z,17.86
2018-08-13T05:49:22.811Z,18.25
2018-08-13T05:51:50.756Z,18.65
2018-08-13T05:54:18.831Z,19.03
2018-08-13T05:56:46.728Z,18.81
2018-08-13T05:59:14.643Z,19.02
2018-08-13T06:01:42.636Z,19.02
2018-08-13T06:04:10.455Z,19.24
2018-08-13T06:06:38.219Z,19.26
2018-08-13T06:09:10.594Z,19.19
2018-08-13T06:11:38.492Z,18.94
2018-08-13T06:14:06.443Z,18.91
2018-08-13T06:16:34.295Z,18.97
2018-08-13T06:19:02.211Z,19.09
2018-08-13T06:21:30.076Z,19.05
2018-08-13T06:23:57.944Z,19.05
2018-08-13T06:26:25.760Z,18.95
2018-08-13T06:28:53.601Z,19.01
2018-08-13T06:31:21.439Z,18.93
2018-08-13T06:33:49.290Z,18.44
2018-08-13T06:36:17.159Z,18.21
2018-08-13T06:38:45.048Z,17.96
2018-08-13T06:41:12.955Z,17.68
2018-08-13T06:43:40.795Z,17.48
2018-08-13T06:46:08.707Z,17.36
2018-08-13T06:48:36.602Z,17.30
2018-08-13T06:51:04.503Z,17.21
2018-08-13T06:53:33.647Z,17.19
2018-08-13T06:56:01.456Z,17.20
2018-08-13T06:58:29.311Z,17.18
2018-08-13T07:00:57.089Z,17.27
2018-08-13T07:03:24.949Z,17.28
2018-08-13T07:05:52.783Z,17.33
2018-08-13T07:08:20.623Z,17.36
2018-08-13T07:10:48.424Z,17.31
2018-08-13T07:13:16.259Z,17.33
2018-08-13T07:15:44.141Z,17.33
2018-08-13T07:18:11.871Z,17.36
2018-08-13T07:20:39.708Z,17.40
2018-08-13T07:23:07.663Z,17.42
2018-08-13T07:25:35.535Z,17.46
2018-08-13T07:28:03.498Z,17.52
2018-08-13T07:30:31.315Z,17.50
2018-08-13T07:32:59.082Z,17.53
2018-08-13T07:35:26.943Z,17.50
2018-08-13T07:37:54.991Z,17.56
2018-08-13T07:40:22.859Z,17.56
2018-08-13T07:42:50.731Z,17.63
2018-08-13T07:45:18.962Z,17.71
2018-08-13T07:47:52.463Z,17.74
2018-08-13T07:50:20.399Z,17.67
2018-08-13T07:52:48.429Z,17.74
2018-08-13T07:55:19.574Z,17.73
2018-08-13T07:57:47.586Z,17.79
2018-08-13T08:00:17.771Z,17.76
2018-08-13T08:02:52.586Z,17.70
2018-08-13T08:05:22.237Z,17.84
2018-08-13T08:07:50.246Z,17.83
2018-08-13T08:10:24.121Z,17.82
2018-08-13T08:12:52.219Z,17.87
2018-08-13T08:15:20.177Z,17.96
2018-08-13T08:17:49.361Z,17.99
2018-08-13T08:20:17.342Z,17.96
2018-08-13T08:22:45.195Z,18.03
2018-08-13T08:25:16.688Z,18.10
2018-08-13T08:27:44.976Z,18.01
2018-08-13T08:30:13.340Z,17.95
2018-08-13T08:32:41.309Z,17.98
2018-08-13T08:35:11.215Z,17.92
2018-08-13T08:37:39.689Z,17.91
2018-08-13T08:40:13.010Z,17.96
2018-08-13T08:42:40.999Z,17.88
2018-08-13T08:45:14.379Z,17.90
2018-08-13T08:47:42.761Z,17.86
2018-08-13T08:50:10.768Z,17.80
2018-08-13T08:52:38.734Z,17.76
2018-08-13T08:55:07.527Z,17.74
2018-08-13T08:57:35.415Z,17.74
2018-08-13T09:00:04.370Z,17.77
2018-08-13T09:02:32.182Z,17.78
2018-08-13T09:05:00.037Z,17.75
2018-08-13T09:07:27.869Z,17.71
2018-08-13T09:09:55.748Z,17.78
2018-08-13T09:12:23.650Z,17.83
2018-08-13T09:14:51.542Z,17.85
2018-08-13T09:17:19.414Z,17.90
2018-08-13T09:20:04.602Z,17.97
2018-08-13T09:22:49.617Z,18.01
2018-08-13T09:25:35.448Z,18.05
2018-08-13T09:28:20.531Z,18.21
2018-08-13T09:31:05.668Z,18.27
2018-08-13T09:33:50.840Z,18.20
2018-08-13T09:36:18.755Z,18.33
2018-08-13T09:38:46.648Z,18.37
2018-08-13T09:41:14.463Z,18.45
2018-08-13T09:43:42.284Z,18.48
2018-08-13T09:46:10.213Z,18.57
2018-08-13T09:48:37.992Z,18.52
2018-08-13T09:51:05.903Z,18.61
2018-08-13T09:53:33.700Z,18.76
2018-08-13T09:56:01.539Z,18.81
2018-08-13T09:58:29.409Z,18.88
2018-08-13T10:01:02.871Z,18.89
2018-08-13T10:03:30.748Z,18.95
2018-08-13T10:05:58.626Z,19.01
2018-08-13T10:08:26.512Z,19.01
2018-08-13T10:10:54.449Z,19.06
2018-08-13T10:13:22.256Z,19.03
2018-08-13T10:15:50.023Z,19.07
2018-08-13T10:18:17.908Z,19.11
2018-08-13T10:20:45.754Z,19.08
2018-08-13T10:23:13.667Z,19.18
2018-08-13T10:25:41.638Z,19.11
2018-08-13T10:28:09.585Z,19.21
2018-08-13T10:30:37.388Z,19.17
2018-08-13T10:33:05.775Z,19.17
2018-08-13T10:35:33.676Z,19.27
2018-08-13T10:38:01.592Z,19.27
2018-08-13T10:40:29.440Z,19.33
2018-08-13T10:42:57.367Z,19.39
2018-08-13T10:45:25.245Z,19.45
2018-08-13T10:47:53.104Z,19.55
2018-08-13T10:50:20.988Z,19.56
2018-08-13T10:52:48.967Z,19.75
2018-08-13T10:55:16.772Z,19.77
2018-08-13T10:57:44.726Z,19.62
2018-08-13T11:00:15.832Z,19.70
2018-08-13T11:02:43.949Z,19.74
2018-08-13T11:05:12.819Z,19.79
2018-08-13T11:07:40.766Z,19.73
2018-08-13T11:10:13.306Z,19.78
2018-08-13T11:12:41.148Z,19.71
2018-08-13T11:15:15.990Z,19.87
2018-08-13T11:17:43.899Z,19.89
2018-08-13T11:20:11.780Z,19.99
2018-08-13T11:22:40.491Z,20.26
2018-08-13T11:25:10.241Z,20.42
2018-08-13T11:27:38.079Z,20.59
2018-08-13T11:30:11.787Z,20.59
2018-08-13T11:32:39.646Z,20.50
2018-08-13T11:35:07.875Z,20.43
2018-08-13T11:37:36.119Z,20.62
2018-08-13T11:40:08.920Z,20.76
2018-08-13T11:42:36.867Z,20.71
2018-08-13T11:45:05.251Z,20.66
2018-08-13T11:47:33.068Z,20.55
2018-08-13T11:50:00.894Z,20.40
2018-08-13T11:52:28.799Z,20.31
2018-08-13T11:54:56.572Z,20.25
2018-08-13T11:57:24.525Z,20.21
2018-08-13T11:59:52.424Z,20.23
2018-08-13T12:02:20.304Z,20.11
2018-08-13T12:04:48.169Z,20.11
2018-08-13T12:07:16.066Z,20.19
2018-08-13T12:09:43.895Z,20.12
2018-08-13T12:12:11.809Z,20.16
2018-08-13T12:14:39.611Z,20.20
2018-08-13T12:17:07.519Z,20.29
2018-08-13T12:19:35.463Z,20.33
2018-08-13T12:22:03.247Z,20.58
2018-08-13T12:24:31.071Z,20.78
2018-08-13T12:26:58.898Z,20.81
2018-08-13T12:29:26.712Z,20.79
2018-08-13T12:31:54.591Z,20.81
2018-08-13T12:34:22.404Z,20.68
2018-08-13T12:36:54.796Z,20.69
2018-08-13T12:39:22.742Z,20.66
2018-08-13T12:41:50.531Z,20.56
2018-08-13T12:44:18.328Z,20.51
2018-08-13T12:46:46.123Z,20.50
2018-08-13T12:49:13.980Z,20.43
2018-08-13T12:51:41.836Z,20.50
2018-08-13T12:54:09.639Z,20.61
2018-08-13T12:56:37.491Z,20.69
2018-08-13T12:59:05.436Z,20.77
2018-08-13T13:01:33.324Z,20.93
2018-08-13T13:04:01.176Z,20.99
2018-08-13T13:06:29.059Z,20.93
2018-08-13T13:08:56.928Z,21.04
2018-08-13T13:11:24.962Z,21.16
2018-08-13T13:13:52.886Z,21.33
2018-08-13T13:16:20.732Z,21.44
2018-08-13T13:18:48.604Z,21.84
2018-08-13T13:21:16.407Z,22.09
2018-08-13T13:23:44.224Z,22.23
2018-08-13T13:26:12.103Z,22.45
2018-08-13T13:28:40.333Z,22.71
2018-08-13T13:31:08.307Z,22.91
2018-08-13T13:33:36.202Z,23.27
2018-08-13T13:36:04.118Z,23.27
2018-08-13T13:38:32.046Z,23.06
2018-08-13T13:40:59.924Z,23.15
2018-08-13T13:43:27.772Z,23.22
2018-08-13T13:45:55.618Z,23.23
2018-08-13T13:48:23.559Z,23.20
2018-08-13T13:50:51.591Z,23.40
2018-08-13T13:53:19.446Z,23.47
2018-08-13T13:55:47.383Z,23.21
2018-08-13T13:58:16.476Z,23.14
2018-08-13T14:00:44.436Z,22.96
2018-08-13T14:03:12.301Z,22.93
2018-08-13T14:05:40.203Z,22.98
2018-08-13T14:08:08.051Z,22.96
2018-08-13T14:10:35.942Z,22.88
2018-08-13T14:13:03.820Z,22.90
2018-08-13T14:15:31.742Z,22.88
2018-08-13T14:17:59.569Z,22.99
2018-08-13T14:20:27.498Z,23.01
2018-08-13T14:22:55.375Z,23.02
2018-08-13T14:25:23.178Z,23.00
2018-08-13T14:27:51.156Z,22.93
2018-08-13T14:30:22.877Z,23.01
2018-08-13T14:32:50.832Z,23.08
2018-08-13T14:35:20.241Z,23.19
2018-08-13T14:37:48.289Z,23.24
2018-08-13T14:40:16.122Z,23.40
2018-08-13T14:42:44.331Z,23.49
2018-08-13T14:45:13.876Z,23.46
2018-08-13T14:47:45.183Z,23.50
2018-08-13T14:50:13.481Z,23.52
2018-08-13T14:52:42.591Z,23.60
2018-08-13T14:55:11.485Z,23.70
2018-08-13T14:57:39.448Z,23.80
2018-08-13T15:00:15.188Z,23.85
2018-08-13T15:02:43.032Z,23.92
2018-08-13T15:05:11.031Z,24.04
2018-08-13T15:07:38.878Z,24.12
2018-08-13T15:10:13.988Z,24.22
2018-08-13T15:12:45.223Z,24.31
2018-08-13T15:15:13.287Z,24.22
2018-08-13T15:17:41.387Z,24.19
2018-08-13T15:20:17.175Z,24.14
2018-08-13T15:22:45.087Z,24.20
2018-08-13T15:25:13.080Z,24.29
2018-08-13T15:27:40.904Z,24.45
2018-08-13T15:30:12.952Z,24.58
2018-08-13T15:32:41.386Z,24.59
2018-08-13T15:35:09.418Z,24.73
2018-08-13T15:37:37.261Z,24.67
2018-08-13T15:40:06.747Z,24.63
2018-08-13T15:42:35.159Z,24.70
2018-08-13T15:45:03.815Z,24.72
2018-08-13T15:47:31.698Z,24.68
2018-08-13T15:49:59.495Z,24.67
2018-08-13T15:52:27.339Z,24.70
2018-08-13T15:54:55.107Z,24.68
2018-08-13T15:57:22.964Z,24.64
2018-08-13T15:59:50.892Z,24.62
2018-08-13T16:02:18.702Z,24.56
2018-08-13T16:04:46.561Z,24.57
2018-08-13T16:07:14.442Z,24.50
2018-08-13T16:09:42.307Z,24.44
2018-08-13T16:12:10.304Z,24.44
2018-08-13T16:14:38.359Z,24.31
2018-08-13T16:17:06.472Z,24.15
2018-08-13T16:19:34.561Z,24.06
2018-08-13T16:22:02.509Z,24.05
2018-08-13T16:24:30.375Z,24.02
2018-08-13T16:26:58.206Z,24.05
2018-08-13T16:29:26.037Z,24.04
2018-08-13T16:31:53.915Z,23.97
2018-08-13T16:34:21.775Z,24.01
2018-08-13T16:36:49.649Z,24.04
2018-08-13T16:39:17.544Z,24.07
2018-08-13T16:41:45.344Z,24.03
2018-08-13T16:44:13.087Z,24.07
2018-08-13T16:46:40.883Z,24.00
2018-08-13T16:49:08.783Z,24.04
2018-08-13T16:51:36.634Z,23.96
2018-08-13T16:54:04.656Z,23.90
2018-08-13T16:56:32.499Z,23.84
2018-08-13T16:59:00.267Z,23.89
2018-08-13T17:01:28.267Z,23.91
2018-08-13T17:03:56.143Z,23.84
2018-08-13T17:06:23.955Z,23.82
2018-08-13T17:08:51.908Z,23.77
2018-08-13T17:11:19.970Z,23.75
2018-08-13T17:13:47.934Z,23.66
2018-08-13T17:16:16.048Z,23.53
2018-08-13T17:18:43.851Z,23.49
2018-08-13T17:21:11.736Z,23.47
2018-08-13T17:23:39.619Z,23.45
2018-08-13T17:26:07.460Z,23.48
2018-08-13T17:28:35.265Z,23.37
2018-08-13T17:31:03.147Z,23.33
2018-08-13T17:33:31.020Z,23.29
2018-08-13T17:35:58.835Z,23.29
2018-08-13T17:38:26.710Z,23.27
2018-08-13T17:40:54.519Z,23.22
2018-08-13T17:43:22.352Z,22.98
2018-08-13T17:45:50.360Z,23.00
2018-08-13T17:48:18.123Z,22.81
2018-08-13T17:50:45.954Z,22.69
2018-08-13T17:53:13.787Z,22.68
2018-08-13T17:55:41.604Z,22.67
2018-08-13T17:58:09.406Z,22.73
2018-08-13T18:00:37.203Z,22.65
2018-08-13T18:03:05.302Z,22.53
2018-08-13T18:05:33.271Z,22.55
2018-08-13T18:08:01.191Z,22.38
2018-08-13T18:10:31.240Z,22.39
2018-08-13T18:13:00.974Z,22.44
2018-08-13T18:15:29.243Z,22.48
2018-08-13T18:17:57.216Z,22.40
2018-08-13T18:20:25.147Z,22.42
2018-08-13T18:22:53.329Z,22.33
2018-08-13T18:25:21.408Z,22.28
2018-08-13T18:27:50.271Z,22.20
2018-08-13T18:30:22.782Z,22.28
2018-08-13T18:32:51.137Z,22.31
2018-08-13T18:35:19.349Z,22.40
2018-08-13T18:37:47.568Z,22.36
2018-08-13T18:40:27.938Z,22.09
2018-08-13T18:42:55.839Z,21.95
2018-08-13T18:45:23.655Z,21.84
2018-08-13T18:47:51.912Z,21.67
2018-08-13T18:50:21.165Z,21.41
2018-08-13T18:52:49.419Z,21.07
2018-08-13T18:55:20.584Z,20.92
2018-08-13T18:57:49.015Z,20.97
2018-08-13T19:00:23.960Z,20.81
2018-08-13T19:02:51.931Z,20.77
2018-08-13T19:05:20.737Z,20.68
2018-08-13T19:07:49.934Z,20.65
2018-08-13T19:10:18.575Z,20.51
2018-08-13T19:12:46.479Z,20.45
2018-08-13T19:15:16.635Z,20.50
2018-08-13T19:17:44.479Z,20.39
2018-08-13T19:20:13.083Z,20.39
2018-08-13T19:22:41.063Z,20.36
2018-08-13T19:25:12.913Z,20.36
2018-08-13T19:27:40.937Z,20.22
2018-08-13T19:30:11.272Z,20.19
2018-08-13T19:32:39.238Z,20.14
2018-08-13T19:35:08.236Z,20.22
2018-08-13T19:37:36.135Z,20.14
2018-08-13T19:40:07.583Z,20.16
2018-08-13T19:42:35.468Z,20.12
2018-08-13T19:45:05.407Z,20.04
2018-08-13T19:47:33.282Z,20.12
2018-08-13T19:50:01.672Z,20.02
2018-08-13T19:52:29.630Z,20.03
2018-08-13T19:54:57.415Z,20.02
2018-08-13T19:57:25.520Z,19.95
2018-08-13T19:59:54.036Z,19.79
2018-08-13T20:02:21.887Z,19.76
2018-08-13T20:04:49.752Z,19.82
2018-08-13T20:07:17.840Z,19.71
2018-08-13T20:09:45.708Z,19.74
2018-08-13T20:12:13.471Z,19.68
2018-08-13T20:14:41.288Z,19.76
2018-08-13T20:17:09.119Z,19.69
2018-08-13T20:19:37.022Z,19.71
2018-08-13T20:22:10.076Z,19.68
2018-08-13T20:24:37.943Z,19.66
2018-08-13T20:27:05.974Z,19.61
2018-08-13T20:29:33.879Z,19.62
2018-08-13T20:32:01.827Z,19.63
2018-08-13T20:34:29.715Z,19.57
2018-08-13T20:36:57.698Z,19.56
2018-08-13T20:39:25.775Z,19.52
2018-08-13T20:41:53.742Z,19.53
2018-08-13T20:44:21.576Z,19.57
2018-08-13T20:46:49.461Z,19.53
2018-08-13T20:49:17.337Z,19.53
2018-08-13T20:51:45.063Z,19.53
2018-08-13T20:54:13.167Z,19.45
2018-08-13T20:56:41.196Z,19.40
2018-08-13T20:59:09.149Z,19.47
2018-08-13T21:01:37.059Z,19.32
2018-08-13T21:04:06.601Z,19.25
2018-08-13T21:06:34.433Z,19.30
2018-08-13T21:09:04.452Z,19.18
2018-08-13T21:11:32.231Z,19.26
2018-08-13T21:14:00.125Z,19.13
2018-08-13T21:16:27.963Z,19.07
2018-08-13T21:18:55.879Z,19.12
2018-08-13T21:21:23.782Z,19.00
2018-08-13T21:23:51.762Z,18.94
2018-08-13T21:26:20.183Z,18.94
2018-08-13T21:28:47.968Z,18.96
2018-08-13T21:31:16.142Z,18.89
2018-08-13T21:33:43.933Z,18.94
2018-08-13T21:36:18.037Z,18.82
2018-08-13T21:38:48.920Z,18.79
2018-08-13T21:41:20.375Z,18.78
2018-08-13T21:43:53.429Z,18.68
2018-08-13T21:46:21.331Z,18.62
2018-08-13T21:48:49.691Z,18.71
2018-08-13T21:51:17.632Z,18.74
2018-08-13T21:53:45.551Z,18.69
2018-08-13T21:56:13.348Z,18.72
2018-08-13T21:58:42.292Z,18.68
2018-08-13T22:01:16.099Z,18.79
2018-08-13T22:03:44.090Z,18.77
2018-08-13T22:06:12.749Z,18.75
2018-08-13T22:08:40.607Z,18.73
2018-08-13T22:11:09.051Z,18.70
2018-08-13T22:13:36.991Z,18.62
2018-08-13T22:16:05.032Z,18.59
2018-08-13T22:18:32.857Z,18.49
2018-08-13T22:21:01.634Z,18.59
2018-08-13T22:23:29.715Z,18.52
2018-08-13T22:26:00.802Z,18.55
2018-08-13T22:28:31.692Z,18.36
2018-08-13T22:31:06.065Z,18.38
2018-08-13T22:33:34.100Z,18.26
2018-08-13T22:36:02.081Z,18.27
2018-08-13T22:38:30.044Z,18.26
2018-08-13T22:40:58.279Z,18.31
2018-08-13T22:43:26.201Z,18.24
2018-08-13T22:45:54.075Z,18.32
2018-08-13T22:48:21.930Z,18.30
2018-08-13T22:50:49.696Z,18.22
2018-08-13T22:53:18.680Z,18.24
2018-08-13T22:55:46.556Z,18.24
2018-08-13T22:58:14.401Z,18.27
2018-08-13T23:00:42.249Z,18.32
2018-08-13T23:03:10.173Z,18.18
2018-08-13T23:05:38.165Z,18.15
2018-08-13T23:08:06.572Z,18.16
2018-08-13T23:10:34.392Z,18.08
2018-08-13T23:13:02.316Z,18.04
2018-08-13T23:15:30.154Z,18.04
2018-08-13T23:17:58.000Z,18.01
2018-08-13T23:20:27.913Z,17.94
2018-08-13T23:22:57.883Z,18.00
2018-08-13T23:25:26.208Z,17.95
2018-08-13T23:27:55.187Z,17.92
2018-08-13T23:30:23.180Z,17.85
2018-08-13T23:32:52.242Z,17.87
2018-08-13T23:35:20.851Z,17.82
2018-08-13T23:37:49.043Z,17.82
2018-08-13T23:40:17.116Z,17.82
2018-08-13T23:42:45.075Z,17.85
2018-08-13T23:45:15.792Z,17.91
2018-08-13T23:47:43.649Z,17.87
2018-08-13T23:50:17.116Z,17.84
2018-08-13T23:52:45.116Z,17.80
2018-08-13T23:55:23.682Z,17.79
2018-08-13T23:57:51.532Z,17.85
